• Join FlightAware (Why Join?)
  • Login
  • US Flag 
06:23AM EDT


 

Airport Tracker/Info


-or-


 

Live Flight TrackerFlight Track Log ✈ SWA554 ✈ 05-Apr-2013 ✈ KMKE - KBWI

Flight Track Log - Related Links

Times and Time Zones

All times are in EDT time to prevent confusion due to time zone crossing. See the SWA554 flight status page for this flight to view local times or setup timezone preferences in your user account.

Time Position Orientation Groundspeed Altitude Reporting Facility
EDT Latitude Longitude Course Direction KTS MPH feet Rate Location/Type
02:41PM 42.9333 -87.8500 124° Southeast 193 222 3,000  Level KMKE
02:41PM 42.9097 -87.8553 189° South 256 295 4,100 1,980 Climbing Chicago Center
02:42PM 42.8833 -87.8833 218° Southwest 276 318 5,000 840 Climbing KMKE
02:42PM 42.8486 -87.9167 215° Southwest 266 306 5,000 1,620 Level Chicago Center
02:43PM 42.7869 -87.9772 216° Southwest 271 312 7,700 3,240 Climbing Chicago Center
02:44PM 42.7133 -88.0081 197° South 304 350 11,800 3,960 Climbing Chicago Center
02:46PM 42.6058 -87.9919 174° South 332 382 15,900 2,940 Climbing Chicago Center
02:47PM 42.5069 -87.9381 158° South 394 453 18,000 2,460 Climbing Chicago Center
02:48PM 42.4097 -87.8483 146° Southeast 420 483 21,100 2,760 Climbing Chicago Center
02:49PM 42.3111 -87.7583 146° Southeast 438 504 23,800 2,460 Climbing Chicago Center
02:50PM 42.2108 -87.6525 142° Southeast 455 524 26,300 2,400 Climbing Chicago Center
02:51PM 42.1719 -87.4531 105° East 459 528 28,800 2,100 Climbing Chicago Center
02:52PM 42.1414 -87.2797 103° East 469 540 30,700 1,620 Climbing Chicago Center
02:53PM 42.1106 -87.0983 103° East 488 562 32,200 1,740 Climbing Chicago Center
02:54PM 42.0764 -86.9111 104° East 507 583 34,400 1,320 Climbing Chicago Center
02:55PM 42.0447 -86.7278 103° East 506 582 35,000 720 Climbing Chicago Center
02:56PM 42.0131 -86.5397 103° East 500 575 36,000 960 Climbing Chicago Center
02:57PM 41.9806 -86.3583 103° East 499 574 37,100 1,200 Climbing Chicago Center
02:58PM 41.9475 -86.1775 104° East 499 574 38,600 1,380 Climbing Chicago Center
02:59PM 41.9061 -85.9644 105° East 493 567 40,000 1,140 Climbing Chicago Center
03:00PM 41.8700 -85.7847 105° East 496 571 41,000 480 Climbing Chicago Center
03:01PM 41.8356 -85.6067 104° East 492 566 41,000  Level Chicago Center
03:02PM 41.8008 -85.4261 104° East 492 566 41,000  Level Chicago Center
03:03PM 41.7622 -85.2469 106° East 489 563 41,000  Level Chicago Center
03:04PM 41.7264 -85.0697 105° East 488 562 41,000  Level Chicago Center
03:05PM 41.6900 -84.8925 105° East 493 567 41,000  Level Chicago Center
03:06PM 41.6636 -84.6806 99° East 487 560 41,000  Level Cleveland Center
03:07PM 41.6550 -84.5047 94° East 479 551 41,000  Level Cleveland Center
03:08PM 41.6486 -84.3267 93° East 479 551 41,000  Level Cleveland Center
03:09PM 41.6214 -84.1361 101° East 474 545 41,000  Level Cleveland Center
03:10PM 41.5575 -83.9744 118° Southeast 470 541 41,000  Level Cleveland Center
03:11PM 41.4911 -83.8156 119° Southeast 483 556 41,000  Level Cleveland Center
03:12PM 41.4267 -83.6572 118° Southeast 494 568 41,000  Level Cleveland Center
03:13PM 41.3619 -83.5019 119° Southeast 494 568 41,000  Level Cleveland Center
03:14PM 41.2972 -83.3414 118° Southeast 489 563 41,000  Level Cleveland Center
03:15PM 41.2319 -83.1842 119° Southeast 489 563 41,000  Level Cleveland Center
03:16PM 41.1686 -83.0325 119° Southeast 489 563 41,000  Level Cleveland Center
03:17PM 41.1031 -82.8731 119° Southeast 489 563 41,000  Level Cleveland Center
03:18PM 41.0375 -82.7167 119° Southeast 489 563 41,000  Level Cleveland Center
03:19PM 40.9714 -82.5606 119° Southeast 489 563 41,000  Level Cleveland Center
03:20PM 40.9053 -82.4019 119° Southeast 489 563 41,000  Level Cleveland Center
03:21PM 40.8389 -82.2492 120° Southeast 488 562 41,000  Level Cleveland Center
03:22PM 40.7722 -82.0911 119° Southeast 488 562 41,000  Level Cleveland Center
03:23PM 40.7114 -81.9528 120° Southeast 488 562 41,000  Level Cleveland Center
03:24PM 40.6444 -81.7981 120° Southeast 493 567 41,000  Level Cleveland Center
03:25PM 40.5750 -81.6411 120° Southeast 493 567 41,000  Level Cleveland Center
03:26PM 40.5097 -81.4897 120° Southeast 493 567 41,000  Level Cleveland Center
03:27PM 40.4400 -81.3225 119° Southeast 488 562 41,000  Level Cleveland Center
03:28PM 40.3719 -81.1689 120° Southeast 488 562 41,000  Level Cleveland Center
03:29PM 40.3061 -81.0158 119° Southeast 488 562 41,000  Level Cleveland Center
03:30PM 40.2397 -80.8658 120° Southeast 488 562 41,000  Level Cleveland Center
03:31PM 40.1714 -80.7189 121° Southeast 488 562 41,000  Level Cleveland Center
03:32PM 40.1047 -80.5694 120° Southeast 488 562 41,000  Level Cleveland Center
03:33PM 40.0358 -80.4178 121° Southeast 483 556 41,000  Level Cleveland Center
03:34PM 39.9689 -80.2689 120° Southeast 483 556 41,000 -900 Level Cleveland Center
03:35PM 39.8994 -80.1175 121° Southeast 483 556 39,300 -2,100 Descending Cleveland Center
03:36PM 39.8444 -79.9639 115° Southeast 477 549 36,800 -2,580 Descending Cleveland Center
03:37PM 39.8103 -79.7967 105° East 470 541 34,200 -2,400 Descending Cleveland Center
03:38PM 39.7775 -79.6322 104° East 470 541 32,100 -2,100 Descending Cleveland Center
03:39PM 39.7450 -79.4733 105° East 465 535 30,100 -1,980 Descending Cleveland Center
03:40PM 39.7289 -79.3931 105° East 434 499 28,900 -1,980 Descending Washington Center
03:41PM 39.6978 -79.2458 105° East 415 478 26,900 -1,920 Descending Washington Center
03:42PM 39.6647 -79.0986 106° East 415 478 25,100 -960 Descending Washington Center
03:43PM 39.6353 -78.9597 105° East 415 478 25,000 -600 Descending Washington Center
03:44PM 39.5958 -78.8044 108° East 415 478 24,000 -1,380 Descending Washington Center
03:45PM 39.5661 -78.6631 105° East 409 471 22,300 -1,740 Descending Washington Center
03:46PM 39.5364 -78.5272 106° East 397 457 20,600 -1,860 Descending Washington Center
03:47PM 39.5061 -78.3917 106° East 392 451 18,600 -1,920 Descending Washington Center
03:48PM 39.4778 -78.2614 106° East 377 434 16,800 -1,800 Descending Washington Center
03:49PM 39.4494 -78.1342 106° East 377 434 15,000 -900 Descending Washington Center
03:50PM 39.4292 -78.0069 102° East 366 421 15,000  Level Washington Center
03:51PM 39.4358 -77.8783 86° East 354 407 15,000  Level Washington Center
03:52PM 39.4400 -77.7628 87° East 347 399 15,000 -240 Level Washington Center
03:53PM 39.4422 -77.6231 89° East 352 405 14,600 -1,020 Descending Washington Center
03:54PM 39.4442 -77.5078 89° East 352 405 13,000 -1,560 Descending Washington Center
03:55PM 39.4464 -77.3733 89° East 345 397 11,500 -1,140 Descending Washington Center
03:56PM 39.4500 -77.2833 87° East 326 375 11,000 -660 Descending Potomac TRACON
03:57PM 39.4667 -77.1667 79° East 323 372 10,400 -1,020 Descending Potomac TRACON
03:58PM 39.4500 -77.0667 102° East 311 358 9,100 -1,380 Descending Potomac TRACON
03:59PM 39.4500 -76.9500 90° East 308 354 7,700 -1,380 Descending Potomac TRACON
04:00PM 39.4500 -76.8500 90° East 284 327 6,400 -1,260 Descending Potomac TRACON
04:01PM 39.4500 -76.7500 90° East 281 323 5,200 -720 Descending Potomac TRACON
04:02PM 39.4333 -76.6500 102° East 274 315 5,000 -120 Descending Potomac TRACON
04:03PM 39.4000 -76.5667 117° Southeast 275 316 5,000 -540 Level Potomac TRACON
04:04PM 39.3333 -76.5333 159° South 273 314 4,000 -780 Descending Potomac TRACON
04:05PM 39.2667 -76.5167 169° South 271 312 3,500 -600 Descending Potomac TRACON
04:06PM 39.2000 -76.5500 201° Southwest 250 288 2,900 -480 Descending Potomac TRACON
04:07PM 39.1333 -76.5667 191° South 209 241 2,600 -660 Descending Potomac TRACON
04:08PM 39.1167 -76.6000 237° Southwest 143 165 1,700 -840 Descending Potomac TRACON
04:09PM 39.1333 -76.6333 303° West 122 140 1,000 -720 Descending Potomac TRACON
04:11PM 39.1667 -76.6667 218° Southwest  Level FlightAware Approximate